Terminal Aerodrome Forecast
Issued by NWS

Home | Current Version | Previous Version | Text Only | Print | Product List | Glossary On
Versions: 1 2 3 4 5 6 7 8 9 10 11 12 13
899
FTUS46 KMTR 302338
TAFSJC
TAF
KSJC 302338Z 3100/3124 32010KT P6SM FEW015 SCT035
     FM310400 32007KT 6SM FU HZ FEW025 SCT030
     FM310800 15007KT 6SM FU BR FEW008 SCT025
     FM311200 16005KT 6SM FU BR BKN008
     FM311500 15005KT 6SM FU BR FEW008 SCT050
     FM311800 19005KT 6SM FU BR FEW012 SCT050
     FM312200 31010KT 6SM FU BR FEW012 SCT050=

USA.gov is the U.S. government's official web portal to all federal, state and local government web resources and services.